Time;durP1;ratioP1;P1;durP2;ratioP2;P2;SDS_P1;SDS_P2;PMS_P1;PMS_P2;Temp;Humidity;BMP_temperature;BMP_pressure;BME280_temperature;BME280_humidity;BME280_pressure;Samples;Min_cycle;Max_cycle;Signal;HPM_P1;HPM_P2
2023/09/18 00:00:25;;;;;;;0.10;0.10;;;;;;;;;;5101337;28;20513;-45
2023/09/18 00:02:50;;;;;;;0.10;0.10;;;;;;;;;;5127780;28;20050;-43
2023/09/18 00:05:16;;;;;;;0.10;0.10;;;;;;;;;;5109062;28;20420;-42
2023/09/18 00:07:42;;;;;;;0.10;0.10;;;;;;;;;;5105616;28;20055;-46
2023/09/18 00:10:09;;;;;;;0.10;0.10;;;;;;;;;;5107306;28;20592;-44
2023/09/18 00:12:35;;;;;;;0.10;0.10;;;;;;;;;;5106298;28;20208;-45
2023/09/18 00:15:00;;;;;;;0.25;0.20;;;;;;;;;;5107649;28;20103;-44
2023/09/18 00:17:26;;;;;;;0.10;0.10;;;;;;;;;;5106002;28;20051;-47
2023/09/18 00:19:52;;;;;;;0.10;0.10;;;;;;;;;;5086625;28;20127;-46
2023/09/18 00:22:18;;;;;;;0.10;0.10;;;;;;;;;;5086468;28;20101;-43
2023/09/18 00:24:44;;;;;;;0.10;0.10;;;;;;;;;;5105332;28;20046;-44
2023/09/18 00:27:11;;;;;;;0.10;0.10;;;;;;;;;;5107028;28;20055;-46
2023/09/18 00:29:36;;;;;;;0.10;0.10;;;;;;;;;;5087762;28;20072;-45
2023/09/18 00:32:02;;;;;;;0.10;0.10;;;;;;;;;;5087171;28;20059;-44
2023/09/18 00:34:29;;;;;;;0.10;0.10;;;;;;;;;;5096189;28;20048;-45
2023/09/18 00:36:54;;;;;;;0.10;0.10;;;;;;;;;;5105677;28;20097;-45
2023/09/18 00:39:20;;;;;;;0.10;0.10;;;;;;;;;;5094301;28;20514;-46
2023/09/18 00:41:49;;;;;;;0.10;0.10;;;;;;;;;;5105454;28;20577;-43
2023/09/18 00:44:14;;;;;;;0.10;0.10;;;;;;;;;;5107410;28;20528;-45
2023/09/18 00:46:40;;;;;;;0.10;0.10;;;;;;;;;;5107654;28;20083;-45
2023/09/18 00:49:06;;;;;;;0.10;0.10;;;;;;;;;;5092159;28;20087;-41
2023/09/18 00:51:32;;;;;;;0.10;0.10;;;;;;;;;;5087505;28;20048;-43
2023/09/18 00:53:57;;;;;;;0.10;0.10;;;;;;;;;;5099979;28;20043;-45
2023/09/18 00:56:23;;;;;;;0.10;0.10;;;;;;;;;;5106564;28;20058;-42
2023/09/18 00:58:50;;;;;;;0.10;0.10;;;;;;;;;;5095247;27;20068;-43
2023/09/18 01:01:22;;;;;;;0.10;0.10;;;;;;;;;;5086576;28;20060;-45
2023/09/18 01:03:48;;;;;;;0.10;0.10;;;;;;;;;;5090260;28;20083;-50
2023/09/18 01:06:15;;;;;;;0.10;0.10;;;;;;;;;;5105259;28;20044;-47
2023/09/18 01:08:40;;;;;;;0.10;0.10;;;;;;;;;;5107265;28;20523;-44
2023/09/18 01:11:10;;;;;;;0.10;0.10;;;;;;;;;;5107681;28;20142;-45
2023/09/18 01:13:38;;;;;;;0.10;0.10;;;;;;;;;;5107226;28;20503;-42
2023/09/18 01:16:08;;;;;;;0.10;0.10;;;;;;;;;;5107059;28;20047;-45
2023/09/18 01:18:33;;;;;;;0.10;0.10;;;;;;;;;;5097203;28;20059;-42
2023/09/18 01:20:59;;;;;;;0.10;0.10;;;;;;;;;;5086644;28;20316;-44
2023/09/18 01:23:24;;;;;;;0.10;0.10;;;;;;;;;;5087010;28;20043;-44
2023/09/18 01:25:50;;;;;;;0.10;0.10;;;;;;;;;;5100305;28;20043;-43
2023/09/18 01:28:16;;;;;;;0.10;0.10;;;;;;;;;;5099184;28;20484;-45
2023/09/18 01:30:42;;;;;;;0.10;0.10;;;;;;;;;;5086594;28;20044;-42
2023/09/18 01:33:08;;;;;;;0.10;0.10;;;;;;;;;;5087141;28;20088;-46
2023/09/18 01:35:34;;;;;;;0.10;0.10;;;;;;;;;;5092277;28;20039;-46
2023/09/18 01:38:00;;;;;;;0.15;0.15;;;;;;;;;;5104602;28;20425;-45
2023/09/18 01:40:26;;;;;;;0.10;0.10;;;;;;;;;;5105492;28;20498;-43
2023/09/18 01:42:52;;;;;;;0.10;0.10;;;;;;;;;;5104991;28;20134;-44
2023/09/18 01:45:18;;;;;;;0.10;0.10;;;;;;;;;;5105903;28;20047;-46
2023/09/18 01:47:43;;;;;;;0.10;0.10;;;;;;;;;;5102739;28;20044;-44
2023/09/18 01:50:09;;;;;;;0.10;0.10;;;;;;;;;;5085411;28;20056;-44
2023/09/18 01:52:35;;;;;;;0.10;0.10;;;;;;;;;;5086331;28;20154;-44
2023/09/18 01:55:03;;;;;;;0.10;0.10;;;;;;;;;;5093005;28;20093;-45
2023/09/18 01:57:29;;;;;;;0.10;0.10;;;;;;;;;;5105527;28;20408;-45
2023/09/18 01:59:55;;;;;;;0.10;0.10;;;;;;;;;;5113953;28;20445;-43
2023/09/18 02:02:21;;;;;;;0.10;0.10;;;;;;;;;;5126672;28;20142;-44
2023/09/18 02:04:54;;;;;;;0.10;0.10;;;;;;;;;;5126817;28;20142;-44
2023/09/18 02:07:35;;;;;;;0.10;0.10;;;;;;;;;;5099820;28;20320;-46
2023/09/18 02:10:01;;;;;;;0.10;0.10;;;;;;;;;;5106087;28;20056;-44
2023/09/18 02:12:26;;;;;;;0.10;0.10;;;;;;;;;;5105976;28;20054;-45
2023/09/18 02:14:52;;;;;;;0.10;0.10;;;;;;;;;;5106150;28;20046;-44
2023/09/18 02:17:17;;;;;;;0.10;0.10;;;;;;;;;;5105873;28;20055;-45
2023/09/18 02:19:43;;;;;;;0.10;0.10;;;;;;;;;;5104771;28;20051;-47
2023/09/18 02:22:09;;;;;;;0.10;0.10;;;;;;;;;;5105847;28;20462;-44
2023/09/18 02:24:34;;;;;;;0.10;0.10;;;;;;;;;;5105761;28;20048;-47
2023/09/18 02:27:00;;;;;;;0.10;0.10;;;;;;;;;;5104746;28;20056;-46
2023/09/18 02:29:26;;;;;;;0.10;0.10;;;;;;;;;;5105020;28;20051;-44
2023/09/18 02:31:51;;;;;;;0.10;0.10;;;;;;;;;;5104963;28;20475;-44
2023/09/18 02:34:19;;;;;;;0.10;0.10;;;;;;;;;;5106363;28;20064;-45
2023/09/18 02:36:44;;;;;;;0.10;0.10;;;;;;;;;;5105340;28;20043;-46
2023/09/18 02:39:10;;;;;;;0.10;0.10;;;;;;;;;;5102415;28;20119;-47
2023/09/18 02:41:35;;;;;;;0.10;0.10;;;;;;;;;;5104352;28;20052;-45
2023/09/18 02:44:01;;;;;;;0.10;0.10;;;;;;;;;;5105528;28;20043;-45
2023/09/18 02:46:26;;;;;;;0.10;0.10;;;;;;;;;;5105327;28;20120;-46
2023/09/18 02:48:52;;;;;;;0.10;0.10;;;;;;;;;;5104541;28;20062;-46
2023/09/18 02:51:18;;;;;;;0.10;0.10;;;;;;;;;;5105113;28;20059;-45
2023/09/18 02:53:43;;;;;;;0.17;0.17;;;;;;;;;;5106174;28;20047;-45
2023/09/18 02:56:09;;;;;;;0.20;0.20;;;;;;;;;;5105235;28;20039;-47
2023/09/18 02:58:35;;;;;;;0.10;0.10;;;;;;;;;;5102440;28;20300;-46
2023/09/18 03:01:02;;;;;;;0.10;0.10;;;;;;;;;;5104179;28;20046;-44
2023/09/18 03:03:28;;;;;;;0.10;0.10;;;;;;;;;;5105722;28;20043;-46
2023/09/18 03:05:59;;;;;;;0.20;0.20;;;;;;;;;;5105238;28;20134;-43
2023/09/18 03:08:25;;;;;;;0.10;0.10;;;;;;;;;;5096491;28;20431;-45
2023/09/18 03:10:50;;;;;;;0.10;0.10;;;;;;;;;;5091188;28;20054;-43
2023/09/18 03:13:16;;;;;;;0.10;0.10;;;;;;;;;;5105166;28;20055;-46
2023/09/18 03:15:44;;;;;;;0.10;0.10;;;;;;;;;;5104837;28;20051;-44
2023/09/18 03:18:10;;;;;;;0.10;0.10;;;;;;;;;;5101632;28;20278;-45
2023/09/18 03:20:36;;;;;;;0.10;0.10;;;;;;;;;;5103823;28;20472;-45
2023/09/18 03:23:02;;;;;;;0.10;0.10;;;;;;;;;;5105085;28;20059;-46
2023/09/18 03:25:28;;;;;;;0.17;0.17;;;;;;;;;;5104942;28;20043;-42
2023/09/18 03:27:54;;;;;;;0.10;0.10;;;;;;;;;;5100559;28;20112;-46
2023/09/18 03:30:20;;;;;;;0.10;0.10;;;;;;;;;;5092203;28;20079;-47
2023/09/18 03:32:48;;;;;;;0.10;0.10;;;;;;;;;;5104951;28;20056;-44
2023/09/18 03:35:20;;;;;;;0.10;0.10;;;;;;;;;;5106043;28;20271;-44
2023/09/18 03:37:47;;;;;;;0.10;0.10;;;;;;;;;;5088045;28;20871;-46
2023/09/18 03:40:13;;;;;;;0.10;0.10;;;;;;;;;;5105184;28;20277;-44
2023/09/18 03:42:39;;;;;;;0.10;0.10;;;;;;;;;;5102652;28;20477;-43
2023/09/18 03:45:05;;;;;;;0.10;0.10;;;;;;;;;;5104343;28;20476;-45
2023/09/18 03:47:31;;;;;;;0.10;0.10;;;;;;;;;;5103276;28;20096;-44
2023/09/18 03:49:56;;;;;;;0.10;0.10;;;;;;;;;;5101683;28;20464;-46
2023/09/18 03:52:22;;;;;;;0.20;0.20;;;;;;;;;;5104798;28;20043;-43
2023/09/18 03:54:47;;;;;;;0.10;0.10;;;;;;;;;;5104911;28;20142;-43
2023/09/18 03:57:13;;;;;;;0.10;0.10;;;;;;;;;;5102034;28;20071;-45
2023/09/18 03:59:39;;;;;;;0.10;0.10;;;;;;;;;;5110434;28;20051;-45
2023/09/18 04:02:05;;;;;;;0.10;0.10;;;;;;;;;;5103873;28;20051;-44
2023/09/18 04:04:30;;;;;;;0.10;0.10;;;;;;;;;;5104994;28;20051;-46
2023/09/18 04:06:56;;;;;;;0.10;0.10;;;;;;;;;;5104677;28;20086;-45
2023/09/18 04:09:22;;;;;;;0.10;0.10;;;;;;;;;;5087366;28;20052;-43
2023/09/18 04:11:47;;;;;;;0.10;0.10;;;;;;;;;;5095125;28;20058;-43
2023/09/18 04:14:14;;;;;;;0.10;0.10;;;;;;;;;;5105043;28;20406;-45
2023/09/18 04:16:41;;;;;;;0.10;0.10;;;;;;;;;;5104037;28;20043;-44
2023/09/18 04:19:08;;;;;;;0.10;0.10;;;;;;;;;;5104139;28;20427;-45
2023/09/18 04:21:33;;;;;;;0.10;0.10;;;;;;;;;;5104852;28;20143;-47
2023/09/18 04:23:59;;;;;;;0.10;0.10;;;;;;;;;;5104978;28;20621;-43
2023/09/18 04:26:29;;;;;;;0.10;0.10;;;;;;;;;;5103510;28;20453;-45
2023/09/18 04:28:55;;;;;;;0.10;0.10;;;;;;;;;;5101348;28;20050;-48
2023/09/18 04:31:20;;;;;;;0.10;0.10;;;;;;;;;;5088325;28;20048;-46
2023/09/18 04:33:46;;;;;;;0.10;0.10;;;;;;;;;;5093365;28;20797;-45
2023/09/18 04:36:12;;;;;;;0.20;0.20;;;;;;;;;;5104001;28;20127;-46
2023/09/18 04:38:37;;;;;;;0.10;0.10;;;;;;;;;;5098619;28;20435;-47
2023/09/18 04:41:03;;;;;;;0.10;0.10;;;;;;;;;;5103276;28;20507;-43
2023/09/18 04:43:29;;;;;;;0.10;0.10;;;;;;;;;;5102914;28;20080;-43
2023/09/18 04:45:55;;;;;;;0.10;0.10;;;;;;;;;;5106352;28;20055;-44
2023/09/18 04:48:21;;;;;;;0.10;0.10;;;;;;;;;;5106902;28;20052;-44
2023/09/18 04:50:46;;;;;;;0.30;0.10;;;;;;;;;;5107267;28;20162;-47
2023/09/18 04:53:12;;;;;;;0.10;0.10;;;;;;;;;;5107642;28;20048;-43
2023/09/18 04:55:38;;;;;;;0.10;0.10;;;;;;;;;;5105503;28;20449;-46
2023/09/18 04:58:04;;;;;;;0.10;0.10;;;;;;;;;;5100407;28;20048;-44
2023/09/18 05:00:31;;;;;;;0.10;0.10;;;;;;;;;;5087473;28;20525;-44
2023/09/18 05:03:00;;;;;;;0.20;0.20;;;;;;;;;;5092736;28;20438;-48
2023/09/18 05:05:25;;;;;;;0.10;0.10;;;;;;;;;;5099939;28;20514;-49
2023/09/18 05:07:51;;;;;;;0.10;0.10;;;;;;;;;;5101341;28;20048;-46
2023/09/18 05:10:17;;;;;;;0.10;0.10;;;;;;;;;;5095189;28;20127;-45
2023/09/18 05:12:42;;;;;;;0.10;0.10;;;;;;;;;;5102314;28;20406;-45
2023/09/18 05:15:09;;;;;;;0.10;0.10;;;;;;;;;;5104541;28;20492;-46
2023/09/18 05:17:43;;;;;;;0.10;0.10;;;;;;;;;;5100834;28;20059;-45
2023/09/18 05:20:15;;;;;;;0.10;0.10;;;;;;;;;;5085514;28;20048;-43
2023/09/18 05:22:42;;;;;;;0.10;0.10;;;;;;;;;;5101824;28;20348;-47
2023/09/18 05:25:09;;;;;;;0.10;0.10;;;;;;;;;;5106002;28;20047;-46
2023/09/18 05:27:35;;;;;;;0.10;0.10;;;;;;;;;;5103136;28;20067;-44
2023/09/18 05:30:01;;;;;;;0.10;0.10;;;;;;;;;;5100764;28;20047;-44
2023/09/18 05:32:26;;;;;;;0.10;0.10;;;;;;;;;;5104884;28;20044;-46
2023/09/18 05:34:52;;;;;;;0.10;0.10;;;;;;;;;;5105301;28;20047;-45
2023/09/18 05:37:18;;;;;;;0.30;0.30;;;;;;;;;;5103958;28;20043;-43
2023/09/18 05:39:43;;;;;;;0.10;0.10;;;;;;;;;;5106296;28;20464;-45
2023/09/18 05:42:09;;;;;;;0.10;0.10;;;;;;;;;;5102138;28;20554;-45
2023/09/18 05:44:34;;;;;;;0.10;0.10;;;;;;;;;;5102333;28;20553;-43
2023/09/18 05:47:02;;;;;;;0.10;0.10;;;;;;;;;;5097226;28;21439;-44
2023/09/18 05:49:28;;;;;;;0.10;0.10;;;;;;;;;;5091551;28;20051;-42
2023/09/18 05:51:53;;;;;;;0.10;0.10;;;;;;;;;;5084834;28;20050;-43
2023/09/18 05:54:19;;;;;;;0.10;0.10;;;;;;;;;;5082650;28;20036;-45
2023/09/18 05:56:45;;;;;;;0.10;0.10;;;;;;;;;;5085630;28;20048;-44
2023/09/18 05:59:10;;;;;;;0.10;0.10;;;;;;;;;;5077971;28;20495;-42
2023/09/18 06:01:37;;;;;;;0.10;0.10;;;;;;;;;;5087728;28;20102;-45
2023/09/18 06:04:03;;;;;;;0.10;0.10;;;;;;;;;;5074935;28;20093;-43
2023/09/18 06:06:29;;;;;;;0.20;0.20;;;;;;;;;;5084801;28;20369;-45
2023/09/18 06:08:54;;;;;;;0.10;0.10;;;;;;;;;;5087930;28;20067;-46
2023/09/18 06:11:20;;;;;;;0.10;0.10;;;;;;;;;;5086686;28;20143;-50
2023/09/18 06:13:46;;;;;;;0.10;0.10;;;;;;;;;;5079644;28;20070;-49
2023/09/18 06:16:12;;;;;;;0.10;0.10;;;;;;;;;;5083636;28;20534;-47
2023/09/18 06:18:38;;;;;;;0.10;0.10;;;;;;;;;;5086416;28;20047;-45
2023/09/18 06:21:04;;;;;;;0.10;0.10;;;;;;;;;;5090439;28;20047;-49
2023/09/18 06:23:29;;;;;;;0.10;0.10;;;;;;;;;;5090993;28;20044;-48
2023/09/18 06:25:56;;;;;;;0.10;0.10;;;;;;;;;;5089145;28;20193;-47
2023/09/18 06:28:22;;;;;;;0.10;0.10;;;;;;;;;;5085815;28;20075;-47
2023/09/18 06:30:48;;;;;;;0.10;0.10;;;;;;;;;;5085659;27;20052;-45
2023/09/18 06:33:13;;;;;;;0.10;0.10;;;;;;;;;;5094715;28;20082;-46
2023/09/18 06:35:39;;;;;;;0.10;0.10;;;;;;;;;;5092418;28;20052;-46
2023/09/18 06:38:06;;;;;;;0.30;0.30;;;;;;;;;;5080787;28;20066;-49
2023/09/18 06:40:32;;;;;;;0.47;0.30;;;;;;;;;;5086367;28;20134;-48
2023/09/18 06:42:58;;;;;;;0.10;0.10;;;;;;;;;;5088669;28;20463;-48
2023/09/18 06:45:23;;;;;;;0.10;0.10;;;;;;;;;;5084200;28;20055;-46
2023/09/18 06:47:50;;;;;;;0.10;0.10;;;;;;;;;;5091951;28;20128;-45
2023/09/18 06:50:15;;;;;;;0.10;0.10;;;;;;;;;;5080623;28;20128;-46
2023/09/18 06:52:41;;;;;;;0.15;0.15;;;;;;;;;;5082861;28;20548;-47
2023/09/18 06:55:06;;;;;;;0.10;0.10;;;;;;;;;;5064935;28;20674;-45
2023/09/18 06:57:32;;;;;;;0.10;0.10;;;;;;;;;;5077258;28;20134;-46
2023/09/18 06:59:58;;;;;;;0.10;0.10;;;;;;;;;;5072328;28;20044;-46
2023/09/18 07:02:23;;;;;;;0.10;0.10;;;;;;;;;;5064739;28;20052;-47
2023/09/18 07:04:49;;;;;;;0.10;0.10;;;;;;;;;;5080080;28;20235;-45
2023/09/18 07:07:15;;;;;;;0.10;0.10;;;;;;;;;;5073168;28;20307;-47
2023/09/18 07:09:41;;;;;;;0.10;0.10;;;;;;;;;;5070488;28;20059;-45
2023/09/18 07:12:28;;;;;;;0.10;0.10;;;;;;;;;;5067014;28;20816;-49
2023/09/18 07:14:53;;;;;;;0.10;0.10;;;;;;;;;;5080464;28;20519;-49
2023/09/18 07:17:19;;;;;;;0.10;0.10;;;;;;;;;;5087902;28;20056;-48
2023/09/18 07:19:44;;;;;;;0.10;0.10;;;;;;;;;;5078336;28;20359;-49
2023/09/18 07:22:10;;;;;;;0.10;0.10;;;;;;;;;;5077346;28;20401;-47
2023/09/18 07:24:35;;;;;;;0.10;0.10;;;;;;;;;;5090488;28;20048;-49
2023/09/18 07:27:01;;;;;;;0.10;0.10;;;;;;;;;;5084158;28;20043;-47
2023/09/18 07:29:27;;;;;;;0.10;0.10;;;;;;;;;;5093088;28;20071;-47
2023/09/18 07:31:53;;;;;;;0.10;0.10;;;;;;;;;;5092907;28;20090;-46
2023/09/18 07:34:18;;;;;;;0.10;0.10;;;;;;;;;;5092051;28;20047;-48
2023/09/18 07:36:44;;;;;;;0.10;0.10;;;;;;;;;;5093051;28;20079;-49
2023/09/18 07:39:11;;;;;;;0.10;0.10;;;;;;;;;;5087600;28;20109;-45
2023/09/18 07:41:37;;;;;;;0.10;0.10;;;;;;;;;;5092377;28;20048;-43
2023/09/18 07:44:03;;;;;;;0.10;0.10;;;;;;;;;;5096344;28;20063;-45
2023/09/18 07:46:28;;;;;;;0.10;0.10;;;;;;;;;;5096431;28;20052;-44
2023/09/18 07:48:54;;;;;;;0.10;0.10;;;;;;;;;;5088281;28;20055;-44
2023/09/18 07:51:20;;;;;;;0.10;0.10;;;;;;;;;;5092186;28;20040;-42
2023/09/18 07:53:46;;;;;;;0.20;0.20;;;;;;;;;;5089371;28;20166;-42
2023/09/18 07:56:12;;;;;;;0.10;0.10;;;;;;;;;;5086453;28;20043;-45
2023/09/18 07:58:38;;;;;;;0.10;0.10;;;;;;;;;;5093829;28;20085;-43
2023/09/18 08:01:05;;;;;;;0.10;0.10;;;;;;;;;;5087687;28;20059;-43
2023/09/18 08:03:31;;;;;;;0.10;0.10;;;;;;;;;;5088500;28;20066;-42
2023/09/18 08:05:57;;;;;;;0.13;0.13;;;;;;;;;;5077094;28;20047;-43
2023/09/18 08:08:23;;;;;;;0.10;0.10;;;;;;;;;;5077593;28;20113;-42
2023/09/18 08:10:49;;;;;;;0.10;0.10;;;;;;;;;;5072470;28;20406;-43
2023/09/18 08:13:15;;;;;;;0.10;0.10;;;;;;;;;;5074142;28;20043;-42
2023/09/18 08:15:41;;;;;;;0.10;0.10;;;;;;;;;;5079908;28;20405;-43
2023/09/18 08:18:06;;;;;;;0.10;0.10;;;;;;;;;;5081012;28;20048;-42
2023/09/18 08:20:33;;;;;;;0.10;0.10;;;;;;;;;;5089296;28;20125;-43
2023/09/18 08:23:01;;;;;;;0.10;0.10;;;;;;;;;;5076162;28;20036;-47
2023/09/18 08:25:26;;;;;;;;;;;;;;;;;;5088764;28;20399;-44
2023/09/18 08:27:52;;;;;;;0.10;0.10;;;;;;;;;;5085019;28;19985;-41
2023/09/18 08:30:20;;;;;;;0.10;0.10;;;;;;;;;;5086575;28;20158;-42
2023/09/18 08:32:46;;;;;;;0.10;0.10;;;;;;;;;;5062161;28;20083;-42
2023/09/18 08:35:12;;;;;;;0.10;0.10;;;;;;;;;;5069958;28;20167;-42
2023/09/18 08:37:39;;;;;;;0.10;0.10;;;;;;;;;;5078090;28;20180;-41
2023/09/18 08:40:09;;;;;;;0.10;0.10;;;;;;;;;;5085775;28;20404;-41
2023/09/18 08:42:36;;;;;;;0.10;0.10;;;;;;;;;;5089591;28;20056;-42
2023/09/18 08:45:03;;;;;;;0.10;0.10;;;;;;;;;;5080308;28;20284;-42
2023/09/18 08:47:29;;;;;;;0.10;0.10;;;;;;;;;;5071788;28;20071;-42
2023/09/18 08:49:57;;;;;;;0.10;0.10;;;;;;;;;;5091227;28;20070;-42
2023/09/18 08:52:23;;;;;;;0.10;0.10;;;;;;;;;;5089828;28;20071;-43
2023/09/18 08:54:50;;;;;;;0.10;0.10;;;;;;;;;;5099712;28;20074;-42
2023/09/18 08:57:16;;;;;;;0.10;0.10;;;;;;;;;;5091645;28;20130;-42
2023/09/18 08:59:43;;;;;;;0.10;0.10;;;;;;;;;;5096480;28;20043;-43
2023/09/18 09:02:11;;;;;;;0.10;0.10;;;;;;;;;;5092066;28;20050;-42
2023/09/18 09:04:37;;;;;;;0.10;0.10;;;;;;;;;;5089755;28;20059;-42
2023/09/18 09:07:03;;;;;;;0.10;0.10;;;;;;;;;;5093310;28;20067;-42
2023/09/18 09:09:30;;;;;;;0.10;0.10;;;;;;;;;;5104992;28;20119;-42
2023/09/18 09:11:56;;;;;;;0.13;0.13;;;;;;;;;;5096936;28;20052;-43
2023/09/18 09:14:28;;;;;;;0.10;0.10;;;;;;;;;;5099388;28;20151;-43
2023/09/18 09:16:54;;;;;;;0.10;0.10;;;;;;;;;;5099315;28;20582;-43
2023/09/18 09:19:27;;;;;;;0.10;0.10;;;;;;;;;;5088834;28;20039;-43
2023/09/18 09:21:53;;;;;;;0.10;0.10;;;;;;;;;;5097221;28;20051;-43
2023/09/18 09:24:35;;;;;;;0.10;0.10;;;;;;;;;;5091537;28;20113;-42
2023/09/18 09:27:03;;;;;;;0.10;0.10;;;;;;;;;;5086788;28;20039;-44
2023/09/18 09:29:29;;;;;;;0.10;0.10;;;;;;;;;;5091368;28;20047;-41
2023/09/18 09:31:56;;;;;;;0.10;0.10;;;;;;;;;;5089666;28;20053;-42
2023/09/18 09:34:26;;;;;;;0.10;0.10;;;;;;;;;;5082627;28;20052;-44
2023/09/18 09:36:53;;;;;;;0.10;0.10;;;;;;;;;;5074082;28;20125;-44
2023/09/18 09:39:21;;;;;;;0.10;0.10;;;;;;;;;;5086562;28;20044;-41
2023/09/18 09:41:47;;;;;;;;;;;;;;;;;;5084509;28;20047;-42
2023/09/18 09:44:13;;;;;;;0.10;0.10;;;;;;;;;;5076653;28;20277;-41
2023/09/18 09:46:48;;;;;;;0.10;0.10;;;;;;;;;;5083095;28;20585;-42
2023/09/18 09:49:15;;;;;;;0.10;0.10;;;;;;;;;;5086412;28;20523;-42
2023/09/18 09:51:41;;;;;;;0.10;0.10;;;;;;;;;;5096904;28;20048;-42
2023/09/18 09:54:07;;;;;;;0.10;0.10;;;;;;;;;;5092899;28;20172;-41
2023/09/18 09:56:50;;;;;;;0.10;0.10;;;;;;;;;;5091782;28;20074;-42
2023/09/18 09:59:18;;;;;;;0.10;0.10;;;;;;;;;;5092769;28;20043;-44
2023/09/18 10:01:46;;;;;;;0.10;0.10;;;;;;;;;;5093407;28;20479;-43
2023/09/18 10:04:12;;;;;;;0.10;0.10;;;;;;;;;;5096497;28;20051;-46
2023/09/18 10:06:41;;;;;;;0.10;0.10;;;;;;;;;;5091798;28;20491;-43
2023/09/18 10:09:10;;;;;;;0.10;0.10;;;;;;;;;;5093107;28;20060;-41
2023/09/18 10:11:40;;;;;;;0.10;0.10;;;;;;;;;;5091075;28;20157;-42
2023/09/18 10:14:26;;;;;;;0.10;0.10;;;;;;;;;;5092688;28;20047;-41
2023/09/18 10:16:54;;;;;;;0.10;0.10;;;;;;;;;;5081293;28;20103;-42
2023/09/18 10:19:28;;;;;;;0.10;0.10;;;;;;;;;;5092001;28;20532;-44
2023/09/18 10:22:13;;;;;;;0.10;0.10;;;;;;;;;;5098567;28;20423;-42
2023/09/18 10:24:41;;;;;;;0.10;0.10;;;;;;;;;;5080494;28;20381;-44
2023/09/18 10:27:08;;;;;;;0.10;0.10;;;;;;;;;;5103916;28;20329;-42
2023/09/18 10:29:36;;;;;;;0.10;0.10;;;;;;;;;;5097272;28;20043;-41
2023/09/18 10:32:03;;;;;;;0.10;0.10;;;;;;;;;;5094264;28;20059;-41
2023/09/18 10:34:30;;;;;;;0.05;0.05;;;;;;;;;;5095000;28;20357;-42
2023/09/18 10:36:56;;;;;;;0.10;0.10;;;;;;;;;;5095523;28;20108;-42
2023/09/18 10:39:23;;;;;;;0.10;0.10;;;;;;;;;;5088108;28;20492;-44
2023/09/18 10:41:51;;;;;;;0.03;0.03;;;;;;;;;;5082864;28;20430;-41
2023/09/18 10:44:17;;;;;;;0.10;0.10;;;;;;;;;;5085367;28;20487;-44
2023/09/18 10:46:44;;;;;;;0.10;0.10;;;;;;;;;;5086233;28;20041;-42
2023/09/18 10:49:10;;;;;;;0.10;0.10;;;;;;;;;;5084900;28;20100;-41
2023/09/18 10:51:40;;;;;;;0.10;0.10;;;;;;;;;;5092846;28;20292;-41
2023/09/18 10:54:07;;;;;;;0.10;0.10;;;;;;;;;;5078706;28;20370;-42
2023/09/18 10:56:32;;;;;;;0.10;0.10;;;;;;;;;;5085524;28;20051;-42
2023/09/18 10:58:59;;;;;;;0.10;0.10;;;;;;;;;;5092823;28;20339;-42
2023/09/18 11:01:27;;;;;;;0.10;0.10;;;;;;;;;;5088529;28;20067;-43
2023/09/18 11:03:52;;;;;;;0.10;0.10;;;;;;;;;;5093476;28;20047;-41
2023/09/18 11:06:21;;;;;;;0.10;0.10;;;;;;;;;;5094358;28;20073;-44
2023/09/18 11:08:48;;;;;;;0.10;0.10;;;;;;;;;;5098858;28;20044;-42
2023/09/18 11:11:19;;;;;;;0.10;0.10;;;;;;;;;;5093316;28;20096;-42
2023/09/18 11:13:46;;;;;;;0.10;0.10;;;;;;;;;;5095794;28;20043;-42
2023/09/18 11:16:13;;;;;;;0.10;0.10;;;;;;;;;;5090819;28;20051;-42
2023/09/18 11:18:39;;;;;;;0.10;0.10;;;;;;;;;;5096710;28;20051;-42
2023/09/18 11:21:15;;;;;;;0.10;0.10;;;;;;;;;;5097579;28;20096;-42
2023/09/18 11:23:42;;;;;;;0.10;0.10;;;;;;;;;;5072979;28;20054;-43
2023/09/18 11:26:09;;;;;;;0.00;0.00;;;;;;;;;;5087336;28;20040;-42
2023/09/18 11:28:35;;;;;;;0.10;0.10;;;;;;;;;;5089373;28;20534;-42
2023/09/18 11:31:01;;;;;;;0.10;0.10;;;;;;;;;;5082547;28;20051;-44
2023/09/18 11:33:30;;;;;;;0.10;0.10;;;;;;;;;;5084727;28;20075;-42
2023/09/18 11:35:55;;;;;;;0.43;0.10;;;;;;;;;;5075006;28;20182;-42
2023/09/18 11:38:23;;;;;;;0.20;0.20;;;;;;;;;;5080757;28;20055;-43
2023/09/18 11:40:49;;;;;;;0.10;0.10;;;;;;;;;;5084177;28;20075;-43
2023/09/18 11:43:25;;;;;;;0.10;0.10;;;;;;;;;;5094153;28;20043;-44
2023/09/18 11:45:54;;;;;;;0.10;0.10;;;;;;;;;;5077399;28;20513;-43
2023/09/18 11:48:20;;;;;;;0.10;0.10;;;;;;;;;;5098914;28;20473;-45
2023/09/18 11:50:48;;;;;;;0.10;0.10;;;;;;;;;;5091350;28;20043;-42
2023/09/18 11:53:14;;;;;;;0.10;0.10;;;;;;;;;;5083967;28;20131;-43
2023/09/18 11:55:40;;;;;;;0.10;0.10;;;;;;;;;;5088672;28;20584;-42
2023/09/18 11:58:09;;;;;;;0.10;0.10;;;;;;;;;;5086373;28;20051;-42
2023/09/18 12:00:35;;;;;;;0.10;0.10;;;;;;;;;;5092334;28;20576;-46
2023/09/18 12:03:24;;;;;;;0.10;0.10;;;;;;;;;;5087808;28;20516;-46
2023/09/18 12:05:54;;;;;;;0.10;0.10;;;;;;;;;;5090607;28;20044;-42
2023/09/18 12:08:19;;;;;;;0.10;0.10;;;;;;;;;;5085883;28;20070;-42
2023/09/18 12:10:48;;;;;;;0.10;0.10;;;;;;;;;;5091687;28;20044;-42
2023/09/18 12:13:14;;;;;;;;;;;;;;;;;;5087544;28;20056;-43
2023/09/18 12:15:41;;;;;;;0.10;0.10;;;;;;;;;;5091670;28;20142;-42
2023/09/18 12:18:08;;;;;;;0.10;0.10;;;;;;;;;;5088215;28;20075;-42
2023/09/18 12:20:35;;;;;;;0.10;0.10;;;;;;;;;;5088707;28;20178;-42
2023/09/18 12:23:07;;;;;;;0.10;0.10;;;;;;;;;;5094872;28;20062;-42
2023/09/18 12:25:33;;;;;;;0.10;0.10;;;;;;;;;;5090110;28;20052;-43
2023/09/18 12:28:00;;;;;;;0.10;0.10;;;;;;;;;;5085568;28;20063;-42
2023/09/18 12:30:25;;;;;;;0.10;0.10;;;;;;;;;;5077135;28;20040;-42
2023/09/18 12:32:51;;;;;;;0.10;0.10;;;;;;;;;;5087115;28;20078;-43
2023/09/18 12:35:18;;;;;;;0.10;0.10;;;;;;;;;;5071242;28;20543;-46
2023/09/18 12:37:44;;;;;;;0.10;0.10;;;;;;;;;;5075037;28;20476;-44
2023/09/18 12:40:26;;;;;;;0.10;0.10;;;;;;;;;;5086521;28;20043;-42
2023/09/18 12:42:53;;;;;;;0.10;0.10;;;;;;;;;;5088717;28;20054;-43
2023/09/18 12:45:19;;;;;;;0.10;0.10;;;;;;;;;;5086585;28;20125;-45
2023/09/18 12:47:45;;;;;;;0.10;0.10;;;;;;;;;;5089878;28;20300;-45
2023/09/18 12:50:13;;;;;;;0.10;0.10;;;;;;;;;;5098391;28;20058;-43
2023/09/18 12:52:38;;;;;;;0.10;0.10;;;;;;;;;;5097142;28;20048;-42
2023/09/18 12:55:06;;;;;;;0.10;0.10;;;;;;;;;;5096320;28;20135;-42
2023/09/18 12:57:32;;;;;;;0.10;0.10;;;;;;;;;;5093905;28;20052;-43
2023/09/18 12:59:58;;;;;;;0.10;0.10;;;;;;;;;;5096996;28;20039;-43
2023/09/18 13:02:24;;;;;;;0.10;0.10;;;;;;;;;;5095530;28;20055;-42
2023/09/18 13:04:56;;;;;;;0.10;0.10;;;;;;;;;;5100582;28;20416;-42
2023/09/18 13:07:22;;;;;;;0.10;0.10;;;;;;;;;;5105246;28;20054;-44
2023/09/18 13:10:05;;;;;;;0.10;0.10;;;;;;;;;;5098123;28;20079;-45
2023/09/18 13:12:52;;;;;;;0.10;0.10;;;;;;;;;;5092359;28;20391;-45
2023/09/18 13:15:27;;;;;;;0.10;0.10;;;;;;;;;;5086033;28;20400;-45
2023/09/18 13:17:53;;;;;;;0.10;0.10;;;;;;;;;;5089271;28;20055;-45
2023/09/18 13:20:24;;;;;;;0.10;0.10;;;;;;;;;;5101840;28;20074;-44
2023/09/18 13:22:51;;;;;;;0.10;0.10;;;;;;;;;;5105258;28;20062;-46
2023/09/18 13:25:19;;;;;;;0.10;0.10;;;;;;;;;;5097185;28;20039;-44
2023/09/18 13:27:45;;;;;;;0.05;0.05;;;;;;;;;;5082631;28;20333;-44
2023/09/18 13:30:10;;;;;;;0.10;0.10;;;;;;;;;;5093645;28;20161;-46
2023/09/18 13:32:36;;;;;;;0.10;0.10;;;;;;;;;;5094932;28;20042;-45
2023/09/18 13:35:06;;;;;;;0.10;0.10;;;;;;;;;;5092026;28;20466;-44
2023/09/18 13:37:32;;;;;;;0.10;0.10;;;;;;;;;;5094653;28;20476;-51
2023/09/18 13:39:58;;;;;;;0.10;0.10;;;;;;;;;;5092858;28;20064;-44
2023/09/18 13:42:23;;;;;;;0.10;0.10;;;;;;;;;;5101562;28;20185;-44
2023/09/18 13:44:49;;;;;;;0.10;0.10;;;;;;;;;;5102838;28;20074;-45
2023/09/18 13:47:15;;;;;;;0.10;0.10;;;;;;;;;;5101481;28;20619;-45
2023/09/18 13:49:40;;;;;;;0.10;0.10;;;;;;;;;;5103945;28;20079;-44
2023/09/18 13:52:06;;;;;;;0.10;0.10;;;;;;;;;;5099900;28;20609;-46
2023/09/18 13:54:32;;;;;;;0.10;0.10;;;;;;;;;;5115301;28;20509;-45
2023/09/18 13:56:57;;;;;;;0.10;0.10;;;;;;;;;;5099110;28;20040;-43
2023/09/18 13:59:24;;;;;;;0.10;0.10;;;;;;;;;;5102325;28;20074;-43
2023/09/18 14:01:51;;;;;;;0.10;0.10;;;;;;;;;;5105412;28;20535;-42
2023/09/18 14:04:17;;;;;;;0.10;0.10;;;;;;;;;;5104262;28;20044;-43
2023/09/18 14:06:42;;;;;;;0.40;0.40;;;;;;;;;;5101650;28;20098;-45
2023/09/18 14:09:10;;;;;;;0.10;0.10;;;;;;;;;;5100479;28;20063;-45
2023/09/18 14:11:37;;;;;;;0.10;0.10;;;;;;;;;;5100159;28;20091;-45
2023/09/18 14:14:03;;;;;;;0.10;0.10;;;;;;;;;;5104539;28;20518;-44
2023/09/18 14:16:33;;;;;;;0.10;0.10;;;;;;;;;;5104643;28;20071;-45
2023/09/18 14:18:59;;;;;;;0.10;0.10;;;;;;;;;;5104513;28;20048;-45
2023/09/18 14:21:24;;;;;;;0.10;0.10;;;;;;;;;;5102748;28;20075;-45
2023/09/18 14:23:50;;;;;;;0.10;0.10;;;;;;;;;;5104748;28;20046;-46
2023/09/18 14:26:16;;;;;;;0.10;0.10;;;;;;;;;;5105386;28;20082;-42
2023/09/18 14:28:46;;;;;;;0.10;0.10;;;;;;;;;;5094589;28;20090;-45
2023/09/18 14:31:12;;;;;;;0.10;0.10;;;;;;;;;;5097415;28;20696;-43
2023/09/18 14:33:38;;;;;;;0.10;0.10;;;;;;;;;;5101026;28;20142;-43
2023/09/18 14:36:04;;;;;;;0.17;0.10;;;;;;;;;;5103458;28;20055;-42
2023/09/18 14:38:29;;;;;;;0.10;0.10;;;;;;;;;;5103019;28;20136;-45
2023/09/18 14:41:01;;;;;;;0.10;0.10;;;;;;;;;;5103302;28;20096;-43